• Join FlightAware (Why Join?)
  • Login
  • US Flag 
05:52AM EDT


 

Airport Tracker/Info


-or-


 

Live Flight TrackerFlight Track Log ✈ EGF3314 ✈ 24-Apr-2013 ✈ KDFW - KMGM

Flight Track Log - Related Links

Times and Time Zones

All times are in EDT time to prevent confusion due to time zone crossing. See the EGF3314 flight status page for this flight to view local times or setup timezone preferences in your user account.

Time Position Orientation Groundspeed Altitude Reporting Facility
EDT Latitude Longitude Course Direction KTS MPH feet Rate Location/Type
10:57PM 32.9333 -97.0333 90° East 167 192 2,000  Level Dallas / Fort Worth TRACON
10:58PM 32.9833 -97.0167 16° North 211 243 5,000 2,100 Climbing Dallas / Fort Worth TRACON
10:59PM 32.6950 -96.7652 68° East  Level FlightAware Approximate
11:00PM 32.7440 -96.6180 68° East  Level FlightAware Approximate
11:00PM 33.0033 -96.8561 82° East 234 269 9,100  Level Fort Worth Center
11:01PM 32.7965 -96.4725 65° Northeast  Level FlightAware Approximate
11:01PM 32.9736 -96.7497 108° East 289 333 11,800  Level Fort Worth Center
11:02PM 32.8500 -96.3278 90° East  Level FlightAware Approximate
11:02PM 32.9481 -96.6533 108° East 328 377 12,800  Level Fort Worth Center
11:03PM 32.9117 -96.5200 108° East 371 427 14,000 1,200 Climbing Fort Worth Center
11:04PM 32.8817 -96.4042 107° East 394 453 15,200 1,260 Climbing Fort Worth Center
11:05PM 32.8636 -96.2583 98° East 399 459 16,600 1,320 Climbing Fort Worth Center
11:06PM 32.8706 -96.1172 87° East 416 479 17,900 1,020 Climbing Fort Worth Center
11:07PM 32.8733 -95.9764 89° East 426 490 18,700 1,080 Climbing Fort Worth Center
11:08PM 32.8736 -95.8278 90° East 439 505 20,100 1,200 Climbing Fort Worth Center
11:09PM 32.8778 -95.6769 88° East 439 505 21,200 1,080 Climbing Fort Worth Center
11:10PM 32.8819 -95.5358 88° East 456 525 22,300 1,200 Climbing Fort Worth Center
11:11PM 32.8839 -95.3825 89° East 461 531 23,600 1,200 Climbing Fort Worth Center
11:12PM 32.8981 -95.2311 84° East 461 531 24,800 1,200 Climbing Fort Worth Center
11:13PM 32.9222 -95.0772 79° East 466 536 26,100 1,200 Climbing Fort Worth Center
11:14PM 32.9467 -94.9231 79° East 466 536 27,300 1,200 Climbing Fort Worth Center
11:15PM 32.9706 -94.7689 79° East 466 536 28,500 1,200 Climbing Fort Worth Center
11:16PM 32.9922 -94.6172 80° East 472 543 29,800 1,200 Climbing Fort Worth Center
11:17PM 33.0158 -94.4603 80° East 472 543 30,900 1,020 Climbing Fort Worth Center
11:18PM 33.0392 -94.3036 80° East 472 543 31,900 1,020 Climbing Fort Worth Center
11:19PM 33.0600 -94.1367 81° East 483 556 33,000 1,020 Climbing Fort Worth Center
11:20PM 33.0828 -93.9747 80° East 488 562 34,000 960 Climbing Fort Worth Center
11:21PM 33.1072 -93.8075 80° East 501 577 35,000 1,020 Climbing Fort Worth Center
11:22PM 33.1336 -93.6378 79° East 507 583 36,100 960 Climbing Fort Worth Center
11:23PM 33.1578 -93.4706 80° East 507 583 37,000 420 Climbing Fort Worth Center
11:24PM 33.1817 -93.3033 80° East 507 583 37,000  Level Fort Worth Center
11:25PM 33.2050 -93.1308 81° East 513 590 37,000  Level Fort Worth Center
11:26PM 33.2306 -92.9608 80° East 518 596 37,000  Level Fort Worth Center
11:28PM 33.2183 -92.5597 92° East 504 580 37,000  Level Memphis Center
11:29PM 33.1878 -92.3928 102° East 514 592 37,000  Level Memphis Center
11:30PM 33.1528 -92.2281 104° East 509 586 37,000  Level Memphis Center
11:31PM 33.1175 -92.0611 104° East 509 586 37,000  Level Memphis Center
11:32PM 33.0758 -91.8944 107° East 519 597 37,000  Level Memphis Center
11:33PM 33.0403 -91.7253 104° East 519 597 37,000  Level Memphis Center
11:34PM 33.0044 -91.5536 104° East 519 597 37,000  Level Memphis Center
11:35PM 32.9683 -91.3872 104° East 519 597 37,000  Level Memphis Center
11:36PM 32.9300 -91.2211 105° East 513 590 37,000  Level Memphis Center
11:37PM 32.8933 -91.0525 104° East 518 596 37,000  Level Memphis Center
11:38PM 32.8586 -90.8867 104° East 518 596 37,000  Level Memphis Center
11:39PM 32.8217 -90.7181 105° East 513 590 37,000  Level Memphis Center
11:40PM 32.7844 -90.5525 105° East 513 590 37,000  Level Memphis Center
11:41PM 32.7492 -90.3992 105° East 518 596 37,000  Level Memphis Center
11:42PM 32.7114 -90.2364 105° East 513 590 37,000  Level Memphis Center
11:43PM 32.6736 -90.0711 105° East 513 590 37,000  Level Memphis Center
11:44PM 32.6419 -89.9008 102° East 513 590 37,000  Level Memphis Center
11:45PM 32.6286 -89.7308 95° East 513 590 37,000  Level Memphis Center
11:46PM 32.6150 -89.5583 95° East 518 596 37,000  Level Memphis Center
11:47PM 32.6033 -89.3856 95° East 518 596 37,000  Level Memphis Center
11:48PM 32.5831 -89.1961 97° East 518 596 37,000 -840 Level Memphis Center
11:49PM 32.5708 -89.0286 95° East 518 596 35,400 -1,740 Descending Memphis Center
11:50PM 32.5564 -88.8611 96° East 518 596 33,600 -1,920 Descending Memphis Center
11:51PM 32.5419 -88.6989 96° East 513 590 31,600 -1,620 Descending Memphis Center
11:53PM 32.5089 -88.3883 97° East 478 550 29,000 -900 Descending Atlanta Center
11:54PM 32.4939 -88.2228 96° East 496 571 29,000 -1,320 Level Atlanta Center
11:55PM 32.4786 -88.0572 96° East 503 579 26,400 -2,820 Descending Atlanta Center
11:56PM 32.4608 -87.8914 97° East 510 587 23,400 -3,000 Descending Atlanta Center
11:57PM 32.4447 -87.7331 97° East 498 573 20,500 -2,820 Descending Atlanta Center
11:58PM 32.4303 -87.5872 97° East 470 541 17,800 -2,880 Descending Atlanta Center
11:59PM 32.4175 -87.4467 96° East 445 512 14,800 -2,280 Descending Atlanta Center
12:00AM 32.4003 -87.3131 99° East 428 493 13,300 -1,500 Descending Atlanta Center
12:01AM 32.3869 -87.1872 97° East 403 464 11,900 -1,380 Descending Atlanta Center
12:02AM 32.3733 -87.0614 97° East 392 451 10,600 -1,200 Descending Atlanta Center
12:03AM 32.3633 -86.9578 96° East 357 411 9,600 -1,380 Descending Atlanta Center
12:04AM 32.3531 -86.8589 97° East 321 369 7,900 -1,800 Descending Atlanta Center
12:05AM 32.3425 -86.7703 98° East 293 337 6,100 -1,860 Descending Atlanta Center
12:06AM 32.3342 -86.6814 96° East 276 318 4,200 -1,560 Descending Atlanta Center
12:07AM 32.3192 -86.5975 102° East 271 312 3,000 -600 Descending Atlanta Center
12:08AM 32.3039 -86.5233 104° East 251 289 3,000  Level Atlanta Center
12:09AM 32.2742 -86.4486 115° Southeast 244 281 3,000  Level Atlanta Center
12:10AM 32.2461 -86.3817 116° Southeast 234 269 3,000  Level Atlanta Center
12:11AM 32.2350 -86.3150 101° East 221 254 3,000  Level Atlanta Center
12:12AM 32.2858 -86.2722 35° Northeast 175 201 3,000  Level Atlanta Center
12:13AM 32.2808 -86.2008 95° East 186 214 3,000 -300 Level Atlanta Center
12:14AM 32.2356 -86.1556 140° Southeast 181 208 2,500 -600 Descending Atlanta Center
12:15AM 32.2303 -86.1039 97° East 182 209 1,900 -300 Descending Atlanta Center
12:16AM 32.2736 -86.1367 327° Northwest 96 110 1,900  Level Atlanta Center
12:17AM 32.2853 -86.1911 284° West 124 143 2,000  Climbing Atlanta Center
12:18AM 32.2883 -86.2500 274° West 153 176 2,000 -300 Level Atlanta Center
12:19AM 32.2936 -86.3044 277° West 168 193 1,500 -600 Descending Atlanta Center
12:20AM 32.2969 -86.3486 275° West 161 185 800 -720 Descending Atlanta Center